Time;durP1;ratioP1;P1;durP2;ratioP2;P2;SDS_P1;SDS_P2;PMS_P1;PMS_P2;Temp;Humidity;BMP_temperature;BMP_pressure;BME280_temperature;BME280_humidity;BME280_pressure;Samples;Min_cycle;Max_cycle;Signal;HPM_P1;HPM_P2
2021/11/26 00:01:40;;;;;;;30.43;15.83;;;;;;;4.47;100.00;99662.84;5017959;28;20092;-80
2021/11/26 00:04:08;;;;;;;30.47;14.70;;;;;;;4.43;100.00;99661.16;5007241;28;20084;-80
2021/11/26 00:06:37;;;;;;;27.73;14.03;;;;;;;4.42;100.00;99652.44;5008658;28;20049;-80
2021/11/26 00:09:05;;;;;;;30.97;14.20;;;;;;;4.44;100.00;99657.63;5032513;28;20048;-81
2021/11/26 00:11:31;;;;;;;29.63;15.80;;;;;;;4.40;100.00;99632.41;4994948;28;21183;-80
2021/11/26 00:16:36;;;;;;;35.23;15.83;;;;;;;4.46;100.00;99630.59;5010864;28;20037;-80
2021/11/26 00:19:05;;;;;;;28.80;13.90;;;;;;;4.49;100.00;99633.16;4996979;28;20045;-82
2021/11/26 00:21:33;;;;;;;29.33;14.10;;;;;;;4.44;100.00;99629.72;4996370;28;20135;-80
2021/11/26 00:24:00;;;;;;;26.20;14.60;;;;;;;4.44;100.00;99624.50;5010895;28;20053;-80
2021/11/26 00:26:29;;;;;;;31.07;15.03;;;;;;;4.40;100.00;99622.81;4996162;28;20037;-80
2021/11/26 00:28:59;;;;;;;30.80;15.50;;;;;;;4.36;100.00;99615.03;5008379;28;20104;-80
2021/11/26 00:31:25;;;;;;;27.73;14.77;;;;;;;4.40;100.00;99607.13;4996836;28;20092;-80
2021/11/26 00:33:52;;;;;;;30.17;13.97;;;;;;;4.41;100.00;99614.09;4997549;28;20053;-80
2021/11/26 00:36:19;;;;;;;27.53;13.73;;;;;;;4.45;100.00;99614.91;5011361;28;20045;-81
2021/11/26 00:38:46;;;;;;;25.93;13.30;;;;;;;4.41;100.00;99613.22;5006828;28;20048;-80
2021/11/26 00:41:12;;;;;;;26.20;13.00;;;;;;;4.36;100.00;99617.63;5011713;28;20038;-80
2021/11/26 00:43:39;;;;;;;33.10;15.67;;;;;;;4.39;100.00;99615.00;4988759;28;20533;-80
2021/11/26 00:46:06;;;;;;;27.43;15.03;;;;;;;4.38;100.00;99608.06;5002186;28;20037;-80
2021/11/26 00:48:35;;;;;;;26.80;13.53;;;;;;;4.43;100.00;99609.69;5021272;28;20044;-80
2021/11/26 00:51:02;;;;;;;24.70;13.77;;;;;;;4.39;100.00;99609.78;5042675;28;20072;-81
2021/11/26 00:53:29;;;;;;;29.77;14.03;;;;;;;4.33;100.00;99602.00;5008219;28;20422;-80
2021/11/26 00:55:56;;;;;;;26.33;13.10;;;;;;;4.32;100.00;99606.38;5041571;28;20053;-81
2021/11/26 00:58:22;;;;;;;26.33;14.80;;;;;;;4.36;100.00;99608.03;5022080;28;20418;-80
2021/11/26 01:00:49;;;;;;;23.93;13.23;;;;;;;4.36;100.00;99602.81;5014933;28;20041;-80
2021/11/26 01:03:16;;;;;;;30.70;14.90;;;;;;;4.30;100.00;99602.91;5005844;28;20061;-80
2021/11/26 01:05:42;;;;;;;27.13;14.47;;;;;;;4.38;100.00;99608.06;5023389;28;20504;-80
2021/11/26 01:08:09;;;;;;;26.63;13.53;;;;;;;4.36;100.00;99601.94;5005847;28;20036;-81
2021/11/26 01:10:36;;;;;;;30.77;14.67;;;;;;;4.27;100.00;99599.44;5004281;28;20044;-81
2021/11/26 01:13:03;;;;;;;25.80;14.60;;;;;;;4.28;100.00;99596.81;5031168;28;20461;-80
2021/11/26 01:15:31;;;;;;;29.47;14.13;;;;;;;4.25;100.00;99604.69;5021682;28;20111;-80
2021/11/26 01:17:58;;;;;;;30.80;14.03;;;;;;;4.34;100.00;99601.97;5001787;28;20046;-80
2021/11/26 01:20:29;;;;;;;31.47;13.90;;;;;;;4.39;100.00;99600.19;4999705;28;20048;-81
2021/11/26 01:22:56;;;;;;;25.50;13.30;;;;;;;4.36;100.00;99607.19;5034887;28;20033;-80
2021/11/26 01:25:23;;;;;;;29.87;13.43;;;;;;;4.29;100.00;99609.03;5029638;28;20108;-81
2021/11/26 01:27:50;;;;;;;28.37;15.03;;;;;;;4.32;100.00;99603.75;5005047;28;20046;-80
2021/11/26 01:32:52;;;;;;;24.58;11.65;;;;;;;4.24;100.00;99590.75;5002898;28;20057;-80
2021/11/26 01:35:19;;;;;;;30.23;13.43;;;;;;;4.21;100.00;99589.94;5009575;28;20577;-80
2021/11/26 01:37:48;;;;;;;26.13;14.53;;;;;;;4.26;100.00;99593.34;5019858;28;20041;-80
2021/11/26 01:40:15;;;;;;;29.30;13.67;;;;;;;4.23;100.00;99575.97;4997168;28;20042;-80
2021/11/26 01:42:42;;;;;;;26.93;13.27;;;;;;;4.19;100.00;99578.63;5008508;28;20055;-79
2021/11/26 01:45:09;;;;;;;27.80;13.97;;;;;;;4.15;100.00;99577.81;5008246;28;20067;-79
2021/11/26 01:47:36;;;;;;;25.07;12.97;;;;;;;4.20;100.00;99576.00;5049574;28;20045;-79
2021/11/26 01:50:04;;;;;;;25.47;13.00;;;;;;;4.20;100.00;99572.50;5016989;28;20063;-80
2021/11/26 01:52:31;;;;;;;28.43;13.53;;;;;;;4.15;100.00;99562.13;5017068;28;20045;-80
2021/11/26 01:54:58;;;;;;;26.30;13.27;;;;;;;4.22;100.00;99568.16;5022357;28;20053;-79
2021/11/26 01:57:25;;;;;;;29.70;13.73;;;;;;;4.27;100.00;99565.47;5018086;28;20044;-80
2021/11/26 01:59:52;;;;;;;25.23;11.43;;;;;;;4.20;100.00;99560.34;5027495;28;20045;-80
2021/11/26 02:02:20;;;;;;;24.30;12.40;;;;;;;4.18;100.00;99551.63;5020088;28;20045;-80
2021/11/26 02:04:47;;;;;;;25.50;12.73;;;;;;;4.28;100.00;99551.50;5017255;28;20056;-79
2021/11/26 02:07:14;;;;;;;21.53;11.27;;;;;;;4.17;100.00;99546.41;5001993;28;20041;-80
2021/11/26 02:09:41;;;;;;;22.47;12.40;;;;;;;4.17;100.00;99552.50;4997599;28;20533;-80
2021/11/26 02:12:08;;;;;;;25.87;12.00;;;;;;;4.23;100.00;99549.81;5016868;28;20409;-80
2021/11/26 02:14:36;;;;;;;21.97;11.27;;;;;;;4.16;100.00;99552.53;5007377;28;20041;-80
2021/11/26 02:17:03;;;;;;;21.70;11.40;;;;;;;4.13;100.00;99545.59;5014895;28;21488;-80
2021/11/26 02:19:29;;;;;;;28.97;12.60;;;;;;;4.15;100.00;99538.59;5032625;28;20098;-81
2021/11/26 02:21:56;;;;;;;27.40;12.43;;;;;;;4.15;100.00;99538.59;5017865;28;20387;-81
2021/11/26 02:24:23;;;;;;;23.80;12.23;;;;;;;4.17;100.00;99538.56;5040586;28;20033;-80
2021/11/26 02:26:50;;;;;;;24.60;11.50;;;;;;;4.15;100.00;99533.38;4993612;28;20045;-80
2021/11/26 02:29:18;;;;;;;20.93;10.03;;;;;;;4.22;100.00;99528.94;5008479;28;20127;-79
2021/11/26 02:31:45;;;;;;;23.43;10.27;;;;;;;4.18;100.00;99525.47;5001698;28;20040;-81
2021/11/26 02:34:12;;;;;;;21.77;10.27;;;;;;;4.16;100.00;99523.78;5013502;28;20045;-81
2021/11/26 02:36:39;;;;;;;22.37;11.30;;;;;;;4.12;100.00;99519.44;4997202;28;20221;-80
2021/11/26 02:39:09;;;;;;;20.40;10.60;;;;;;;4.06;100.00;99515.19;4999315;28;20041;-81
2021/11/26 02:41:37;;;;;;;22.43;9.63;;;;;;;4.05;100.00;99515.22;5019766;28;20056;-80
2021/11/26 02:44:05;;;;;;;25.70;11.70;;;;;;;4.10;100.00;99508.16;5033384;28;20049;-81
2021/11/26 02:46:32;;;;;;;17.37;9.70;;;;;;;4.01;100.00;99509.16;5034237;28;20091;-80
2021/11/26 02:48:59;;;;;;;21.60;10.50;;;;;;;4.00;100.00;99501.31;5016692;28;20050;-81
2021/11/26 02:51:25;;;;;;;20.80;10.30;;;;;;;3.99;100.00;99505.69;5004705;28;20037;-80
2021/11/26 02:53:53;;;;;;;19.13;9.20;;;;;;;3.97;100.00;99494.41;5016316;28;20048;-81
2021/11/26 02:56:19;;;;;;;20.70;10.23;;;;;;;4.00;100.00;99496.09;5018766;28;20041;-80
2021/11/26 02:58:46;;;;;;;18.23;9.90;;;;;;;4.12;100.00;99490.69;5006857;28;20052;-81
2021/11/26 03:01:16;;;;;;;20.73;9.87;;;;;;;4.07;100.00;99495.16;5031544;28;20052;-81
2021/11/26 03:03:45;;;;;;;16.37;9.13;;;;;;;4.06;100.00;99490.81;4996925;28;20067;-81
2021/11/26 03:06:12;;;;;;;20.67;10.57;;;;;;;4.06;100.00;99498.66;5009949;28;20053;-80
2021/11/26 03:08:39;;;;;;;21.27;9.47;;;;;;;4.06;100.00;99490.81;5035396;28;20041;-81
2021/11/26 03:11:06;;;;;;;18.80;8.77;;;;;;;3.95;100.00;99483.97;5054194;28;20085;-80
2021/11/26 03:13:33;;;;;;;14.93;9.13;;;;;;;4.00;100.00;99483.91;5002234;28;20459;-80
2021/11/26 03:15:59;;;;;;;22.13;8.93;;;;;;;3.98;100.00;99479.59;5021670;28;20045;-80
2021/11/26 03:18:28;;;;;;;17.37;9.33;;;;;;;4.02;100.00;99484.75;5013826;28;20112;-81
2021/11/26 03:20:56;;;;;;;18.30;9.13;;;;;;;3.98;100.00;99488.28;5002810;28;20068;-80
2021/11/26 03:23:23;;;;;;;15.50;8.50;;;;;;;3.98;100.00;99476.97;5003100;28;20037;-81
2021/11/26 03:25:50;;;;;;;16.80;8.90;;;;;;;3.94;100.00;99481.34;5012887;28;20052;-81
2021/11/26 03:28:16;;;;;;;19.00;9.70;;;;;;;3.95;100.00;99481.38;5037379;28;20037;-80
2021/11/26 03:30:44;;;;;;;15.63;8.40;;;;;;;3.94;100.00;99483.97;5022997;28;20559;-80
2021/11/26 03:33:11;;;;;;;19.80;8.03;;;;;;;3.94;100.00;99474.38;5013680;28;20049;-80
2021/11/26 03:35:38;;;;;;;16.27;7.87;;;;;;;3.98;100.00;99472.59;5002863;28;20041;-80
2021/11/26 03:38:04;;;;;;;18.53;8.73;;;;;;;3.93;100.00;99472.66;5016838;28;20425;-80
2021/11/26 03:40:31;;;;;;;18.33;8.63;;;;;;;3.94;100.00;99478.75;5023242;28;20045;-80
2021/11/26 03:42:58;;;;;;;17.50;9.47;;;;;;;3.88;100.00;99471.88;5021168;28;20525;-80
2021/11/26 03:45:27;;;;;;;20.03;8.70;;;;;;;3.84;100.00;99470.16;4989886;28;20045;-81
2021/11/26 03:47:55;;;;;;;14.90;7.87;;;;;;;3.87;100.00;99477.13;5038164;28;20076;-80
2021/11/26 03:50:23;;;;;;;18.60;8.73;;;;;;;3.86;100.00;99472.75;5016441;28;20084;-80
2021/11/26 03:52:50;;;;;;;17.03;8.73;;;;;;;3.89;100.00;99467.50;4988821;28;20569;-80
2021/11/26 03:55:19;;;;;;;16.20;8.13;;;;;;;3.88;100.00;99460.56;5018468;28;20044;-81
2021/11/26 03:57:46;;;;;;;16.50;8.83;;;;;;;4.02;100.00;99462.97;5007354;28;20044;-80
2021/11/26 04:00:14;;;;;;;18.03;8.77;;;;;;;3.90;100.00;99458.78;4998313;28;20088;-80
2021/11/26 04:02:41;;;;;;;19.93;9.57;;;;;;;3.91;100.00;99453.53;5003995;28;20050;-80
2021/11/26 04:05:09;;;;;;;19.57;10.13;;;;;;;3.88;100.00;99450.97;5014992;28;20057;-81
2021/11/26 04:07:36;;;;;;;16.80;8.07;;;;;;;3.91;100.00;99450.06;4997794;28;20041;-80
2021/11/26 04:10:04;;;;;;;18.17;8.83;;;;;;;4.01;100.00;99445.56;4986537;28;20041;-80
2021/11/26 04:12:31;;;;;;;15.97;9.20;;;;;;;3.85;100.00;99437.06;5025794;28;20113;-80
2021/11/26 04:14:58;;;;;;;18.37;8.03;;;;;;;3.88;100.00;99434.41;5021430;28;20502;-80
2021/11/26 04:17:25;;;;;;;17.53;8.07;;;;;;;3.94;100.00;99432.56;5030998;28;20650;-80
2021/11/26 04:19:52;;;;;;;15.20;8.20;;;;;;;3.94;100.00;99434.31;5025785;28;20041;-80
2021/11/26 04:22:19;;;;;;;22.67;8.13;;;;;;;4.04;100.00;99430.72;5018541;28;20115;-80
2021/11/26 04:24:45;;;;;;;16.40;8.73;;;;;;;4.04;100.00;99419.41;5019154;28;20079;-80
2021/11/26 04:27:12;;;;;;;19.27;9.37;;;;;;;3.99;100.00;99426.44;5003679;28;20038;-80
2021/11/26 04:29:39;;;;;;;19.00;8.37;;;;;;;3.93;100.00;99419.53;5007703;28;20418;-80
2021/11/26 04:32:07;;;;;;;17.27;8.80;;;;;;;3.96;100.00;99409.06;5037337;28;20049;-81
2021/11/26 04:34:33;;;;;;;16.97;8.20;;;;;;;3.88;100.00;99413.53;5026180;28;20045;-80
2021/11/26 04:37:00;;;;;;;16.07;8.60;;;;;;;3.98;100.00;99417.72;5023870;28;20048;-81
2021/11/26 04:39:27;;;;;;;15.07;7.00;;;;;;;3.90;100.00;99406.53;5019619;28;20036;-81
2021/11/26 04:41:53;;;;;;;20.83;9.67;;;;;;;3.94;100.00;99413.41;5008572;28;20414;-80
2021/11/26 04:44:20;;;;;;;15.63;7.97;;;;;;;3.87;100.00;99409.19;5029593;28;20045;-80
2021/11/26 04:46:47;;;;;;;15.10;8.13;;;;;;;3.94;100.00;99398.59;5031246;28;20041;-81
2021/11/26 04:49:14;;;;;;;16.83;7.93;;;;;;;3.92;100.00;99405.59;5017796;28;20041;-81
2021/11/26 04:51:40;;;;;;;18.17;8.50;;;;;;;3.91;100.00;99397.78;5022931;28;20045;-80
2021/11/26 04:54:07;;;;;;;14.60;7.70;;;;;;;3.88;100.00;99401.31;5012436;28;20045;-81
2021/11/26 04:56:35;;;;;;;18.33;7.93;;;;;;;3.93;100.00;99396.00;5004952;28;20053;-80
2021/11/26 04:59:02;;;;;;;18.83;9.27;;;;;;;3.94;100.00;99392.50;5031299;28;20087;-80
2021/11/26 05:01:28;;;;;;;18.73;9.07;;;;;;;3.90;100.00;99394.31;5038763;28;20319;-80
2021/11/26 05:03:55;;;;;;;25.43;12.33;;;;;;;3.99;100.00;99390.72;5018846;28;20454;-80
2021/11/26 05:06:22;;;;;;;23.77;12.83;;;;;;;3.97;100.00;99395.09;4994622;28;20524;-80
2021/11/26 05:08:48;;;;;;;23.20;11.53;;;;;;;3.95;100.00;99389.91;5022511;28;20563;-80
2021/11/26 05:11:15;;;;;;;16.23;10.13;;;;;;;3.86;100.00;99390.00;5030165;28;20046;-80
2021/11/26 05:13:46;;;;;;;16.83;8.83;;;;;;;3.84;100.00;99380.47;5026886;28;20041;-81
2021/11/26 05:16:14;;;;;;;15.60;8.73;;;;;;;3.86;100.00;99376.94;5018958;28;20110;-80
2021/11/26 05:18:42;;;;;;;21.30;8.90;;;;;;;3.94;100.00;99380.31;5022578;28;20046;-81
2021/11/26 05:21:09;;;;;;;17.33;8.57;;;;;;;3.91;100.00;99372.53;5000310;28;20048;-81
2021/11/26 05:23:35;;;;;;;18.23;8.90;;;;;;;3.86;100.00;99379.56;5021521;28;20794;-80
2021/11/26 05:26:03;;;;;;;17.50;7.80;;;;;;;3.91;100.00;99375.13;5033664;28;20457;-80
2021/11/26 05:28:30;;;;;;;17.17;8.83;;;;;;;3.85;100.00;99372.59;5001307;28;20045;-80
2021/11/26 05:30:57;;;;;;;20.37;9.67;;;;;;;3.88;100.00;99367.34;4989874;28;20054;-80
2021/11/26 05:33:24;;;;;;;15.43;8.17;;;;;;;3.84;100.00;99365.66;5021340;28;20425;-80
2021/11/26 05:35:51;;;;;;;16.90;7.77;;;;;;;3.87;100.00;99370.84;5015432;28;20045;-80
2021/11/26 05:38:17;;;;;;;17.83;9.70;;;;;;;3.85;100.00;99361.28;5034974;28;20073;-80
2021/11/26 05:40:44;;;;;;;20.00;10.00;;;;;;;3.84;100.00;99367.41;5007338;28;20168;-81
2021/11/26 05:43:10;;;;;;;15.63;8.03;;;;;;;3.80;100.00;99365.75;5030552;28;20049;-80
2021/11/26 05:45:37;;;;;;;14.17;7.60;;;;;;;3.82;100.00;99356.13;5019889;28;20414;-80
2021/11/26 05:48:04;;;;;;;18.30;9.13;;;;;;;3.92;100.00;99361.19;5023034;28;20103;-80
2021/11/26 05:50:31;;;;;;;17.20;9.00;;;;;;;3.92;100.00;99358.56;5022763;28;20052;-81
2021/11/26 05:52:58;;;;;;;17.67;8.40;;;;;;;3.91;100.00;99351.63;5022210;28;20041;-81
2021/11/26 05:55:27;;;;;;;20.67;8.60;;;;;;;3.88;100.00;99351.69;5021386;28;20053;-80
2021/11/26 05:57:54;;;;;;;15.23;7.70;;;;;;;3.86;100.00;99356.03;5021664;28;20061;-81
2021/11/26 06:00:23;;;;;;;18.87;8.10;;;;;;;3.87;100.00;99354.31;5019965;28;20040;-80
2021/11/26 06:02:50;;;;;;;18.77;9.13;;;;;;;3.90;100.00;99349.91;5009653;28;20072;-80
2021/11/26 06:05:17;;;;;;;16.33;8.17;;;;;;;3.92;100.00;99350.72;4996937;28;20542;-80
2021/11/26 06:07:44;;;;;;;22.33;9.43;;;;;;;3.92;100.00;99355.97;5001077;28;20037;-80
2021/11/26 06:10:12;;;;;;;17.17;8.27;;;;;;;3.97;100.00;99348.06;5046559;28;20052;-80
2021/11/26 06:12:44;;;;;;;16.40;8.40;;;;;;;3.97;100.00;99349.81;5009889;28;20064;-80
2021/11/26 06:15:12;;;;;;;15.83;7.77;;;;;;;3.88;100.00;99342.97;5030144;28;20095;-80
2021/11/26 06:17:40;;;;;;;18.27;8.53;;;;;;;3.86;100.00;99345.59;5006096;28;20040;-80
2021/11/26 06:20:07;;;;;;;16.03;8.37;;;;;;;3.85;100.00;99350.84;5018977;28;20095;-80
2021/11/26 06:22:34;;;;;;;17.37;7.93;;;;;;;3.81;100.00;99350.03;5004526;28;20049;-80
2021/11/26 06:25:01;;;;;;;17.37;9.57;;;;;;;3.86;100.00;99350.81;5039365;28;20240;-80
2021/11/26 06:27:27;;;;;;;18.90;9.57;;;;;;;3.98;100.00;99343.72;5027813;28;20133;-82
2021/11/26 06:29:54;;;;;;;16.53;9.23;;;;;;;3.90;100.00;99349.03;5019587;28;20096;-80
2021/11/26 06:32:23;;;;;;;18.40;8.10;;;;;;;4.00;100.00;99341.91;4988470;28;20046;-80
2021/11/26 06:34:50;;;;;;;20.43;8.90;;;;;;;3.97;100.00;99344.59;4992015;28;20049;-80
2021/11/26 06:37:17;;;;;;;20.70;10.13;;;;;;;3.96;100.00;99335.91;5023319;28;20320;-81
2021/11/26 06:39:44;;;;;;;19.00;9.23;;;;;;;3.86;100.00;99335.13;5005142;28;20065;-80
2021/11/26 06:42:10;;;;;;;16.67;8.80;;;;;;;3.86;100.00;99339.50;5006118;28;20532;-81
2021/11/26 06:44:37;;;;;;;19.57;9.57;;;;;;;3.93;100.00;99328.06;5023975;28;20056;-81
2021/11/26 06:47:04;;;;;;;18.10;9.60;;;;;;;3.95;100.00;99334.13;5033667;28;20056;-80
2021/11/26 06:49:31;;;;;;;21.90;10.93;;;;;;;3.96;100.00;99335.91;5023568;28;20044;-81
2021/11/26 06:51:58;;;;;;;21.37;10.57;;;;;;;4.05;100.00;99332.28;5004130;28;20096;-80
2021/11/26 06:54:25;;;;;;;19.97;10.77;;;;;;;3.99;100.00;99330.59;5014591;28;20064;-80
2021/11/26 06:56:52;;;;;;;19.80;10.20;;;;;;;3.93;100.00;99336.78;5021856;28;20037;-80
2021/11/26 06:59:19;;;;;;;23.33;9.97;;;;;;;3.97;100.00;99341.97;5005069;28;20510;-80
2021/11/26 07:01:46;;;;;;;24.50;10.97;;;;;;;3.88;100.00;99333.38;5004238;28;20045;-80
2021/11/26 07:04:13;;;;;;;19.87;10.53;;;;;;;3.97;100.00;99323.69;5019212;28;20128;-80
2021/11/26 07:06:40;;;;;;;18.97;9.50;;;;;;;3.96;100.00;99338.50;5020304;28;20091;-80
2021/11/26 07:09:07;;;;;;;21.50;9.73;;;;;;;3.87;100.00;99321.22;5012682;28;20067;-80
2021/11/26 07:11:33;;;;;;;22.67;10.97;;;;;;;3.87;100.00;99330.81;5022223;28;20147;-81
2021/11/26 07:14:01;;;;;;;24.53;10.57;;;;;;;3.94;100.00;99322.81;5023672;28;20579;-80
2021/11/26 07:16:28;;;;;;;21.63;9.77;;;;;;;3.93;100.00;99328.06;5040055;28;20075;-80
2021/11/26 07:18:55;;;;;;;25.23;11.30;;;;;;;3.95;100.00;99331.53;5004079;28;20040;-80
2021/11/26 07:21:22;;;;;;;20.00;11.37;;;;;;;4.03;100.00;99331.41;5038532;28;20049;-81
2021/11/26 07:23:49;;;;;;;22.00;10.97;;;;;;;4.06;100.00;99324.41;5004763;28;20044;-79
2021/11/26 07:26:16;;;;;;;19.87;10.67;;;;;;;4.02;100.00;99322.72;4999305;28;20041;-81
2021/11/26 07:28:43;;;;;;;19.40;9.60;;;;;;;4.09;100.00;99326.09;5001064;28;20045;-80
2021/11/26 07:31:09;;;;;;;21.80;9.80;;;;;;;4.00;100.00;99329.72;5009488;28;20520;-79
2021/11/26 07:33:36;;;;;;;21.83;10.43;;;;;;;3.99;100.00;99325.38;4986523;28;20517;-81
2021/11/26 07:36:06;;;;;;;28.37;11.77;;;;;;;4.03;100.00;99324.44;5005442;28;20041;-81
2021/11/26 07:38:34;;;;;;;18.77;10.37;;;;;;;3.99;100.00;99325.38;5003146;28;20049;-80
2021/11/26 07:41:02;;;;;;;23.43;9.73;;;;;;;4.00;100.00;99331.47;5005576;28;20041;-80
2021/11/26 07:43:28;;;;;;;21.70;10.10;;;;;;;3.93;100.00;99328.94;5037635;28;20052;-80
2021/11/26 07:45:57;;;;;;;24.33;11.27;;;;;;;4.06;100.00;99327.03;5021168;28;20406;-80
2021/11/26 07:48:24;;;;;;;22.43;10.17;;;;;;;3.95;100.00;99319.34;5003623;28;20540;-81
2021/11/26 07:50:51;;;;;;;19.37;9.83;;;;;;;4.01;100.00;99318.38;5022915;28;20044;-80
2021/11/26 07:53:19;;;;;;;24.23;9.57;;;;;;;4.01;100.00;99312.28;5001079;28;20045;-80
2021/11/26 07:55:46;;;;;;;23.07;10.90;;;;;;;3.98;100.00;99307.13;5014112;28;20171;-80
2021/11/26 07:58:13;;;;;;;22.87;10.67;;;;;;;4.01;100.00;99309.69;5021475;28;20073;-80
2021/11/26 08:00:40;;;;;;;19.10;10.40;;;;;;;4.02;100.00;99306.16;5004261;28;20082;-82
2021/11/26 08:03:08;;;;;;;19.93;9.83;;;;;;;4.05;100.00;99300.91;5010817;28;20046;-83
2021/11/26 08:05:56;;;;;;;26.47;10.90;;;;;;;4.10;100.00;99301.69;4992961;28;20069;-81
2021/11/26 08:08:23;;;;;;;21.17;9.87;;;;;;;4.15;100.00;99302.50;4994782;28;20050;-82
2021/11/26 08:10:50;;;;;;;21.27;10.20;;;;;;;4.16;100.00;99298.97;5012465;28;20201;-82
2021/11/26 08:13:16;;;;;;;20.40;10.33;;;;;;;4.09;100.00;99297.34;5067570;28;20045;-83
2021/11/26 08:15:43;;;;;;;17.33;10.03;;;;;;;4.12;100.00;99294.69;5034455;28;20099;-81
2021/11/26 08:18:10;;;;;;;22.70;10.53;;;;;;;4.08;100.00;99295.63;5031203;28;20552;-82
2021/11/26 08:20:37;;;;;;;24.80;10.77;;;;;;;4.10;100.00;99293.84;5034047;28;20041;-81
2021/11/26 08:23:05;;;;;;;19.40;9.27;;;;;;;4.17;100.00;99295.47;5041986;28;20049;-81
2021/11/26 08:25:33;;;;;;;21.60;10.87;;;;;;;4.14;100.00;99291.19;5002185;28;20041;-83
2021/11/26 08:27:59;;;;;;;22.90;11.13;;;;;;;4.23;100.00;99293.63;5018496;28;20122;-80
2021/11/26 08:30:26;;;;;;;18.13;9.63;;;;;;;4.24;100.00;99291.88;5001903;28;20092;-80
2021/11/26 08:32:53;;;;;;;18.47;10.10;;;;;;;4.34;100.00;99282.97;4991666;28;20045;-81
2021/11/26 08:35:21;;;;;;;19.90;9.83;;;;;;;4.42;100.00;99286.31;5018569;28;20566;-81
2021/11/26 08:37:48;;;;;;;18.83;9.27;;;;;;;4.38;100.00;99279.44;5017603;28;20099;-81
2021/11/26 08:40:16;;;;;;;19.67;8.57;;;;;;;4.34;100.00;99279.50;5016867;28;20041;-82
2021/11/26 08:42:44;;;;;;;18.83;9.50;;;;;;;4.39;100.00;99275.06;5002888;28;20091;-81
2021/11/26 08:45:12;;;;;;;21.53;9.70;;;;;;;4.44;100.00;99268.84;5016158;28;20517;-81
2021/11/26 08:47:40;;;;;;;19.27;10.27;;;;;;;4.55;100.00;99265.22;4986923;28;20060;-81
2021/11/26 08:50:14;;;;;;;21.37;9.63;;;;;;;4.55;100.00;99266.06;5017917;28;20087;-82
2021/11/26 08:52:43;;;;;;;18.10;8.45;;;;;;;4.54;100.00;99259.13;5009693;28;20045;-81
2021/11/26 08:55:13;;;;;;;16.37;8.13;;;;;;;4.68;100.00;99270.16;5040637;28;20052;-82
2021/11/26 08:57:46;;;;;;;22.80;8.77;;;;;;;4.64;100.00;99273.75;5018208;28;20402;-82
2021/11/26 09:00:13;;;;;;;20.63;8.80;;;;;;;4.60;100.00;99265.97;5001983;28;20124;-81
2021/11/26 09:02:40;;;;;;;16.23;8.60;;;;;;;4.61;100.00;99262.44;4995746;28;20051;-81
2021/11/26 09:05:07;;;;;;;20.17;9.27;;;;;;;4.62;100.00;99266.78;5012010;28;20091;-81
2021/11/26 09:07:34;;;;;;;14.40;7.87;;;;;;;4.63;100.00;99264.16;5004171;28;20442;-81
2021/11/26 09:10:01;;;;;;;14.23;8.07;;;;;;;4.75;100.00;99252.59;4985278;28;20049;-81
2021/11/26 09:12:28;;;;;;;20.07;8.67;;;;;;;4.74;99.62;99266.56;5019799;28;20037;-84
2021/11/26 09:14:55;;;;;;;17.43;7.93;;;;;;;4.67;100.00;99262.34;5008030;28;20066;-81
2021/11/26 09:17:22;;;;;;;19.03;8.77;;;;;;;4.61;100.00;99249.38;5042442;28;20045;-84
2021/11/26 09:19:49;;;;;;;18.17;8.23;;;;;;;4.72;100.00;99253.53;5024273;28;20040;-81
2021/11/26 09:22:16;;;;;;;15.43;7.87;;;;;;;4.71;100.00;99249.19;5025532;28;20045;-82
2021/11/26 09:24:43;;;;;;;17.23;7.90;;;;;;;4.71;98.50;99245.72;5024262;28;20049;-82
2021/11/26 09:27:10;;;;;;;16.73;7.37;;;;;;;4.78;99.51;99242.06;5023162;28;20083;-84
2021/11/26 09:29:41;;;;;;;16.53;7.20;;;;;;;4.80;100.00;99240.31;5024332;28;20099;-81
2021/11/26 09:32:12;;;;;;;15.60;8.10;;;;;;;4.73;100.00;99233.47;5088072;22;20037;31
2021/11/26 09:34:39;;;;;;;16.63;8.07;;;;;;;4.76;100.00;99241.25;5007557;28;20112;-82
2021/11/26 09:37:06;;;;;;;14.70;7.23;;;;;;;4.82;99.93;99235.03;4995421;28;20037;-83
2021/11/26 09:39:32;;;;;;;17.97;7.50;;;;;;;4.83;98.32;99231.53;4990782;28;20046;-83
2021/11/26 09:42:04;;;;;;;14.67;8.03;;;;;;;4.80;98.45;99229.84;4991322;28;20349;-83
2021/11/26 09:44:34;;;;;;;15.27;7.47;;;;;;;4.88;97.82;99227.06;4991123;28;20047;-83
2021/11/26 09:47:02;;;;;;;21.30;8.63;;;;;;;4.83;97.71;99224.53;4976019;28;20069;-82
2021/11/26 09:49:30;;;;;;;18.20;8.57;;;;;;;4.83;98.85;99221.06;4973927;28;20430;-82
2021/11/26 09:51:56;;;;;;;20.00;10.47;;;;;;;4.80;97.95;99219.38;4994137;28;20299;-83
2021/11/26 09:54:23;;;;;;;16.17;8.27;;;;;;;4.79;97.93;99217.63;4974940;28;20045;-83
2021/11/26 09:56:50;;;;;;;17.37;9.13;;;;;;;4.75;98.32;99211.59;5010603;28;20097;-84
2021/11/26 09:59:18;;;;;;;14.93;7.90;;;;;;;4.75;97.90;99206.38;5011558;28;20042;-85
2021/11/26 10:01:48;;;;;;;19.10;8.40;;;;;;;4.76;97.74;99213.31;4971729;28;20050;-82
2021/11/26 10:04:19;;;;;;;16.00;8.93;;;;;;;4.79;97.47;99202.81;4942764;28;20042;-84
2021/11/26 10:06:47;;;;;;;20.63;8.73;;;;;;;4.79;96.58;99186.22;4961155;28;20046;-85
2021/11/26 10:09:16;;;;;;;16.80;8.47;;;;;;;4.76;98.61;99191.53;4975894;28;20066;-85
2021/11/26 10:11:51;;;;;;;15.73;8.40;;;;;;;4.74;98.84;99193.31;4960296;28;20042;-84
2021/11/26 10:14:33;;;;;;;23.93;9.50;;;;;;;4.74;97.25;99194.19;4990175;28;20057;-85
2021/11/26 10:17:19;;;;;;;14.37;7.90;;;;;;;4.63;97.49;99183.09;4990665;28;20093;-84
2021/11/26 10:20:01;;;;;;;22.40;9.83;;;;;;;4.71;98.03;99178.56;4953686;28;20110;-84
2021/11/26 10:22:31;;;;;;;30.20;9.40;;;;;;;4.70;98.46;99176.81;4968741;28;20052;-85
2021/11/26 10:25:09;;;;;;;15.77;8.13;;;;;;;4.69;98.09;99172.47;4973864;28;20164;-85
2021/11/26 10:27:43;;;;;;;14.73;8.20;;;;;;;4.77;99.07;99169.69;5007533;28;20104;-85
2021/11/26 10:30:16;;;;;;;13.77;8.25;;;;;;;4.81;97.35;99166.16;4973213;28;20125;-84
2021/11/26 10:32:57;;;;;;;24.75;9.25;;;;;;;4.81;96.15;99163.53;4974092;28;20093;-84
2021/11/26 10:35:39;;;;;;;17.50;8.57;;;;;;;4.81;97.94;99158.28;4957673;28;20046;-85
2021/11/26 10:38:12;;;;;;;13.47;7.10;;;;;;;4.86;97.93;99145.94;5007279;28;20142;-86
2021/11/26 10:40:45;;;;;;;16.80;7.53;;;;;;;4.89;97.55;99138.06;4935047;28;20050;-85
2021/11/26 10:43:36;;;;;;;18.50;8.90;;;;;;;4.98;97.71;99134.38;4958721;28;20073;-86
2021/11/26 10:46:17;;;;;;;17.77;7.20;;;;;;;5.00;96.34;99129.97;4972293;28;20050;-84
2021/11/26 10:59:23;;;;;;;14.00;6.87;;;;;;;5.18;95.99;99105.97;4983557;28;20046;-85
2021/11/26 11:01:50;;;;;;;18.10;7.80;;;;;;;5.31;94.70;99107.41;4955667;28;20043;-85
2021/11/26 11:04:20;;;;;;;17.90;6.67;;;;;;;5.33;94.19;99115.22;4953847;28;20488;-84
2021/11/26 11:07:04;;;;;;;16.73;7.23;;;;;;;5.40;93.98;99111.56;4971523;28;20046;-85
2021/11/26 11:09:42;;;;;;;15.43;7.27;;;;;;;5.41;93.98;99109.81;4973192;28;20049;-84
2021/11/26 11:12:10;;;;;;;18.50;9.40;;;;;;;5.43;92.96;99106.25;5006776;28;20054;-86
2021/11/26 11:14:38;;;;;;;14.80;6.87;;;;;;;5.44;93.96;99097.50;4973413;28;20042;-85
2021/11/26 11:17:05;;;;;;;18.60;7.60;;;;;;;5.42;92.35;99101.06;4958574;28;20149;-83
2021/11/26 11:19:32;;;;;;;17.93;7.67;;;;;;;5.45;92.33;99100.97;5005551;28;20061;-83
2021/11/26 11:21:59;;;;;;;16.07;8.90;;;;;;;5.44;90.39;99102.72;4974909;28;20043;-84
2021/11/26 11:24:27;;;;;;;15.47;8.97;;;;;;;5.33;90.90;99103.00;4971674;28;20498;-84
2021/11/26 11:26:54;;;;;;;17.23;7.90;;;;;;;5.41;89.22;99088.84;5006473;28;20199;-83
2021/11/26 11:29:24;;;;;;;18.17;9.53;;;;;;;5.39;89.16;99095.91;4972383;28;20046;-84
2021/11/26 11:31:54;;;;;;;19.07;7.60;;;;;;;5.39;91.20;99088.91;4973847;28;20625;-84
2021/11/26 11:34:26;;;;;;;16.47;8.27;;;;;;;5.36;90.48;99083.72;4956740;28;20392;-84
2021/11/26 11:36:55;;;;;;;16.90;8.70;;;;;;;5.32;91.17;99082.94;4970868;28;20050;-84
2021/11/26 11:39:21;;;;;;;15.97;7.67;;;;;;;5.34;91.77;99081.16;4969463;28;20097;-85
2021/11/26 11:41:53;;;;;;;20.23;9.00;;;;;;;5.39;90.44;99086.28;4954507;28;20039;-84
2021/11/26 11:44:24;;;;;;;14.10;6.80;;;;;;;5.35;90.90;99076.78;4973377;28;20503;-85